Time;durP1;ratioP1;P1;durP2;ratioP2;P2;SDS_P1;SDS_P2;PMS_P1;PMS_P2;Temp;Humidity;BMP_temperature;BMP_pressure;BME280_temperature;BME280_humidity;BME280_pressure;Samples;Min_cycle;Max_cycle;Signal;HPM_P1;HPM_P2
2023/12/20 00:00:51;;;;;;;0.20;0.20;;;;;;;4.40;74.34;101522.16;4953157;29;20067;-89
2023/12/20 00:03:16;;;;;;;0.20;0.20;;;;;;;4.36;74.21;101511.13;4969039;28;20067;-90
2023/12/20 00:05:42;;;;;;;0.20;0.20;;;;;;;4.41;73.82;101523.88;4953210;29;20089;-89
2023/12/20 00:08:07;;;;;;;0.10;0.10;;;;;;;4.31;73.96;101508.56;4968778;28;20039;-88
2023/12/20 00:10:33;;;;;;;0.10;0.10;;;;;;;4.35;73.93;101519.66;4968699;28;20031;-90
2023/12/20 00:12:59;;;;;;;0.20;0.20;;;;;;;4.40;73.68;101517.03;4969006;28;20062;-88
2023/12/20 00:15:24;;;;;;;0.20;0.20;;;;;;;4.28;73.71;101508.63;4952875;29;20035;-88
2023/12/20 00:17:50;;;;;;;0.10;0.10;;;;;;;4.30;74.42;101519.69;4936966;29;20031;-89
2023/12/20 00:20:15;;;;;;;0.10;0.10;;;;;;;4.22;74.53;101518.91;4953190;29;20023;-89
2023/12/20 00:22:41;;;;;;;0.20;0.20;;;;;;;4.20;74.49;101500.16;4969006;28;20027;-88
2023/12/20 00:25:07;;;;;;;0.20;0.20;;;;;;;4.28;74.02;101508.63;4953495;29;20509;-89
2023/12/20 00:27:32;;;;;;;0.20;0.20;;;;;;;4.38;73.94;101509.38;4952663;28;20569;-88
2023/12/20 00:29:58;;;;;;;0.10;0.10;;;;;;;4.24;74.26;101501.84;4953439;29;20035;-91
2023/12/20 00:32:24;;;;;;;0.20;0.20;;;;;;;4.12;74.79;101491.66;4952305;29;20525;-89
2023/12/20 00:34:50;;;;;;;0.20;0.20;;;;;;;4.05;74.73;101484.06;4952421;29;20043;-89
2023/12/20 00:37:16;;;;;;;0.10;0.10;;;;;;;4.03;75.17;101484.06;4952599;29;20082;-88
2023/12/20 00:39:42;;;;;;;0.20;0.20;;;;;;;4.21;75.19;101493.31;4952349;29;20093;-89
2023/12/20 00:42:07;;;;;;;0.20;0.20;;;;;;;4.06;74.86;101471.25;4952512;29;20114;-89
2023/12/20 00:44:33;;;;;;;0.20;0.20;;;;;;;4.07;74.98;101488.31;4952277;29;20086;-89
2023/12/20 00:46:58;;;;;;;0.20;0.20;;;;;;;4.01;75.31;101480.66;4952440;29;20526;-88
2023/12/20 00:49:24;;;;;;;0.20;0.20;;;;;;;4.00;75.29;101484.94;4952145;29;20030;-88
2023/12/20 00:51:50;;;;;;;0.10;0.10;;;;;;;3.93;76.03;101485.88;4952259;29;20031;-88
2023/12/20 00:54:16;;;;;;;0.20;0.20;;;;;;;3.97;75.37;101487.53;4952048;29;20108;-88
2023/12/20 00:56:41;;;;;;;0.10;0.10;;;;;;;3.88;75.22;101466.28;4952193;29;20027;-89
2023/12/20 00:59:07;;;;;;;0.10;0.10;;;;;;;3.80;75.09;101466.34;4952152;29;20118;-89
2023/12/20 01:01:33;;;;;;;0.10;0.10;;;;;;;3.76;75.49;101476.63;4952378;29;20067;-88
2023/12/20 01:03:58;;;;;;;0.10;0.10;;;;;;;3.88;75.60;101476.53;4936157;29;20047;-88
2023/12/20 01:06:24;;;;;;;0.20;0.20;;;;;;;3.74;75.57;101459.56;4951772;28;20450;-88
2023/12/20 01:08:49;;;;;;;0.20;0.20;;;;;;;3.73;75.66;101460.41;4951934;29;20059;-88
2023/12/20 01:11:15;;;;;;;0.20;0.20;;;;;;;3.83;75.57;101468.00;4951866;29;20059;-88
2023/12/20 01:13:41;;;;;;;0.10;0.10;;;;;;;3.81;74.92;101460.34;4951752;29;20134;-88
2023/12/20 01:16:08;;;;;;;0.10;0.10;;;;;;;3.77;74.55;101447.59;4951739;28;20476;-89
2023/12/20 01:18:34;;;;;;;0.20;0.20;;;;;;;3.78;74.04;101446.75;4952071;28;20027;-89
2023/12/20 01:21:03;;;;;;;0.10;0.10;;;;;;;3.80;73.44;101447.56;4951838;29;20497;-87
2023/12/20 01:23:29;;;;;;;0.10;0.10;;;;;;;3.80;73.53;101439.91;4951540;29;20115;-88
2023/12/20 01:25:54;;;;;;;0.10;0.10;;;;;;;3.83;73.44;101450.09;4936015;29;20028;-89
2023/12/20 01:28:20;;;;;;;0.10;0.10;;;;;;;3.78;73.34;101450.16;4951471;28;20027;-88
2023/12/20 01:30:46;;;;;;;0.10;0.10;;;;;;;3.65;73.51;101446.84;4952275;28;20031;-88
2023/12/20 01:33:11;;;;;;;0.20;0.20;;;;;;;3.67;73.33;101447.66;4955239;28;20043;-88
2023/12/20 01:35:37;;;;;;;0.20;0.20;;;;;;;3.49;72.85;101421.38;4954776;28;20060;-88
2023/12/20 01:38:02;;;;;;;0.20;0.20;;;;;;;3.32;72.72;101391.63;4970625;28;20061;-87
2023/12/20 01:40:28;;;;;;;0.20;0.20;;;;;;;3.52;72.74;101437.53;4972125;28;20059;-90
2023/12/20 01:43:00;;;;;;;0.10;0.10;;;;;;;3.52;72.71;101429.84;4970618;28;20041;-87
2023/12/20 01:45:26;;;;;;;0.20;0.20;;;;;;;3.54;72.30;101420.50;4954614;28;20077;-89
2023/12/20 01:47:52;;;;;;;0.20;0.20;;;;;;;3.55;71.99;101411.94;4954899;28;20468;-88
2023/12/20 01:50:17;;;;;;;0.20;0.20;;;;;;;3.60;71.74;101419.56;4938729;28;20510;-87
2023/12/20 01:52:43;;;;;;;0.20;0.20;;;;;;;3.66;71.29;101414.44;4954438;28;20023;-86
2023/12/20 01:55:13;;;;;;;0.20;0.20;;;;;;;3.41;70.70;101373.66;4954700;28;20023;-88
2023/12/20 01:57:39;;;;;;;0.20;0.20;;;;;;;3.46;71.45;101401.78;4955278;28;20030;-88
2023/12/20 02:00:06;;;;;;;0.20;0.20;;;;;;;3.15;71.81;101355.97;4938665;28;20031;-88
2023/12/20 02:02:31;;;;;;;0.10;0.10;;;;;;;3.33;72.05;101384.81;4954633;28;20512;-88
2023/12/20 02:04:57;;;;;;;0.13;0.13;;;;;;;3.29;72.03;101388.25;4954367;28;20034;-90
2023/12/20 02:07:23;;;;;;;0.10;0.10;;;;;;;3.31;72.31;101391.66;4954840;28;20058;-89
2023/12/20 02:09:48;;;;;;;0.10;0.10;;;;;;;3.27;72.37;101395.94;4954584;28;20073;-88
2023/12/20 02:12:14;;;;;;;0.10;0.10;;;;;;;3.22;72.23;101381.47;4970531;28;20031;-88
2023/12/20 02:14:39;;;;;;;0.20;0.20;;;;;;;3.23;71.82;101378.06;4954436;28;20031;-89
2023/12/20 02:17:05;;;;;;;0.10;0.10;;;;;;;3.13;72.42;101375.56;4970750;28;20493;-89
2023/12/20 02:19:31;;;;;;;0.20;0.20;;;;;;;3.06;71.92;101375.63;4956850;28;20022;-89
2023/12/20 02:22:10;;;;;;;0.10;0.10;;;;;;;3.00;72.54;101376.50;4974362;28;20066;-88
2023/12/20 02:24:35;;;;;;;0.20;0.20;;;;;;;2.83;72.25;101337.41;4958394;28;20531;-88
2023/12/20 02:27:01;;;;;;;0.10;0.10;;;;;;;3.03;72.16;101371.34;4974026;28;20125;-88
2023/12/20 02:29:26;;;;;;;0.10;0.10;;;;;;;3.02;72.65;101373.94;4957754;28;20038;-89
2023/12/20 02:31:52;;;;;;;0.10;0.10;;;;;;;2.83;72.33;101347.63;4957630;28;20058;-89
2023/12/20 02:34:18;;;;;;;0.10;0.10;;;;;;;2.97;71.94;101362.91;4957657;28;20054;-88
2023/12/20 02:36:43;;;;;;;0.10;0.10;;;;;;;3.05;72.04;101369.66;4974106;28;20090;-88
2023/12/20 02:39:09;;;;;;;0.20;0.20;;;;;;;3.05;71.55;101364.56;4957553;28;20027;-88
2023/12/20 02:41:34;;;;;;;0.20;0.20;;;;;;;2.98;72.13;101350.09;4957871;28;20027;-88
2023/12/20 02:44:01;;;;;;;0.20;0.20;;;;;;;3.00;72.30;101357.75;4957755;28;20031;-88
2023/12/20 02:46:26;;;;;;;0.15;0.15;;;;;;;2.90;72.35;101339.06;4973634;28;20455;-87
2023/12/20 02:48:52;;;;;;;0.10;0.10;;;;;;;2.92;72.70;101357.81;4974523;28;20038;-89
2023/12/20 02:51:17;;;;;;;0.10;0.10;;;;;;;3.03;72.39;101350.06;4957596;28;20064;-89
2023/12/20 02:53:43;;;;;;;0.20;0.20;;;;;;;2.95;72.41;101327.13;4957592;28;20073;-88
2023/12/20 02:56:09;;;;;;;0.10;0.10;;;;;;;2.97;72.47;101329.69;4973594;28;20019;-88
2023/12/20 02:58:34;;;;;;;0.20;0.20;;;;;;;2.89;72.71;101327.16;4957435;28;20038;-89
2023/12/20 03:01:00;;;;;;;0.10;0.10;;;;;;;2.97;72.91;101334.78;4957367;28;20041;-88
2023/12/20 03:03:25;;;;;;;0.17;0.17;;;;;;;2.84;72.96;101313.53;4973306;28;20037;-89
2023/12/20 03:05:51;;;;;;;0.10;0.10;;;;;;;2.93;72.76;101313.50;4957423;28;20035;-88
2023/12/20 03:08:16;;;;;;;0.10;0.10;;;;;;;3.01;72.31;101310.88;4973114;28;20026;-88
2023/12/20 03:10:42;;;;;;;0.10;0.10;;;;;;;2.84;72.57;101291.38;4973267;28;20026;-88
2023/12/20 03:13:08;;;;;;;0.10;0.10;;;;;;;2.98;72.21;101322.00;4973340;28;20035;-89
2023/12/20 03:15:33;;;;;;;0.10;0.10;;;;;;;2.99;72.51;101322.84;4957255;28;20050;-89
2023/12/20 03:17:59;;;;;;;0.10;0.10;;;;;;;2.87;73.06;101314.41;4956687;28;20019;-87
2023/12/20 03:20:26;;;;;;;0.10;0.10;;;;;;;3.01;72.46;101323.66;4972998;28;20062;-89
2023/12/20 03:22:51;;;;;;;0.10;0.10;;;;;;;2.98;72.43;101323.69;4957289;28;20106;-88
2023/12/20 03:25:17;;;;;;;0.20;0.20;;;;;;;2.90;72.68;101317.78;4973109;28;20118;-87
2023/12/20 03:27:43;;;;;;;0.17;0.17;;;;;;;2.79;72.77;101302.53;4956897;28;20031;-88
2023/12/20 03:30:09;;;;;;;0.20;0.20;;;;;;;2.87;72.72;101313.56;4956429;28;20163;-87
2023/12/20 03:32:34;;;;;;;0.10;0.10;;;;;;;2.97;72.34;101314.34;4956358;28;20084;-87
2023/12/20 03:35:00;;;;;;;0.20;0.20;;;;;;;2.99;71.78;101308.34;4956515;28;20061;-89
2023/12/20 03:37:25;;;;;;;0.10;0.10;;;;;;;2.94;71.73;101307.50;4940913;28;20493;-89
2023/12/20 03:39:51;;;;;;;0.10;0.10;;;;;;;2.82;72.13;101289.72;4956723;28;20105;-88
2023/12/20 03:42:16;;;;;;;0.20;0.20;;;;;;;2.82;72.53;101292.28;4956570;28;20031;-89
2023/12/20 03:44:42;;;;;;;0.20;0.20;;;;;;;2.71;72.61;101278.72;4972386;28;20031;-89
2023/12/20 03:47:07;;;;;;;0.10;0.10;;;;;;;2.72;72.92;101290.63;4956256;28;20042;-87
2023/12/20 03:49:33;;;;;;;0.10;0.10;;;;;;;2.82;72.20;101294.81;4956073;28;20035;-88
2023/12/20 03:51:58;;;;;;;0.10;0.10;;;;;;;2.80;72.10;101286.31;4956521;28;20030;-87
2023/12/20 03:54:24;;;;;;;0.10;0.10;;;;;;;2.83;72.11;101278.63;4956414;28;20409;-88
2023/12/20 03:56:50;;;;;;;0.10;0.10;;;;;;;2.82;72.18;101282.91;4972156;28;20497;-88
2023/12/20 03:59:16;;;;;;;0.20;0.20;;;;;;;2.85;72.19;101288.00;4956538;28;20031;-87
2023/12/20 04:01:44;;;;;;;0.10;0.10;;;;;;;2.81;72.29;101275.25;4955820;28;20134;-87
2023/12/20 04:04:11;;;;;;;0.20;0.20;;;;;;;2.83;72.31;101276.06;4972511;28;20037;-91
2023/12/20 04:06:36;;;;;;;0.10;0.10;;;;;;;2.67;72.03;101249.78;4940791;28;20137;-91
2023/12/20 04:09:02;;;;;;;0.20;0.20;;;;;;;2.75;71.82;101263.38;4956894;28;20091;-92
2023/12/20 04:11:27;;;;;;;0.20;0.20;;;;;;;2.91;72.09;101284.53;4972617;28;20119;-89
2023/12/20 04:13:53;;;;;;;0.10;0.10;;;;;;;2.97;71.64;101278.56;4940790;28;20089;-92
2023/12/20 04:16:18;;;;;;;0.10;0.10;;;;;;;2.85;72.17;101282.03;4955481;28;20030;-88
2023/12/20 04:18:44;;;;;;;0.20;0.20;;;;;;;2.88;71.60;101279.47;4939635;28;20023;-86
2023/12/20 04:21:09;;;;;;;0.20;0.20;;;;;;;2.79;72.22;101282.06;4939777;28;20504;-86
2023/12/20 04:23:35;;;;;;;0.10;0.10;;;;;;;2.72;72.32;101277.84;4955586;28;20417;-86
2023/12/20 04:26:00;;;;;;;0.10;0.10;;;;;;;2.63;72.12;101253.22;4955636;28;20385;-87
2023/12/20 04:28:26;;;;;;;0.20;0.20;;;;;;;2.70;72.32;101265.09;4955877;28;20528;-82
2023/12/20 04:30:51;;;;;;;0.10;0.10;;;;;;;2.63;72.40;101252.38;4971540;28;20488;-90
2023/12/20 04:33:17;;;;;;;0.10;0.10;;;;;;;2.65;72.42;101273.63;4975058;28;20130;-89
2023/12/20 04:35:42;;;;;;;0.10;0.10;;;;;;;2.57;72.98;101266.88;4959079;28;20121;-90
2023/12/20 04:38:09;;;;;;;0.10;0.10;;;;;;;2.66;72.96;101276.22;4959093;28;20026;-90
2023/12/20 04:40:34;;;;;;;0.20;0.20;;;;;;;2.65;73.19;101273.63;4974668;28;20130;-91
2023/12/20 04:43:00;;;;;;;0.10;0.10;;;;;;;2.63;73.07;101267.69;4974982;28;20412;-89
2023/12/20 04:45:25;;;;;;;0.10;0.10;;;;;;;2.69;72.94;101265.09;4958894;28;20038;-88
2023/12/20 04:47:51;;;;;;;0.10;0.10;;;;;;;2.64;73.05;101264.28;4975250;28;20500;-89
2023/12/20 04:50:17;;;;;;;0.20;0.20;;;;;;;2.46;73.16;101250.78;4958044;28;20034;-89
2023/12/20 04:52:42;;;;;;;0.10;0.10;;;;;;;2.53;73.33;101267.75;4974080;28;20045;-87
2023/12/20 04:55:08;;;;;;;0.10;0.10;;;;;;;2.47;73.04;101257.56;4957957;28;20161;-88
2023/12/20 04:57:35;;;;;;;0.10;0.10;;;;;;;2.36;72.96;101228.72;4974424;28;20105;-89
2023/12/20 05:00:01;;;;;;;0.20;0.20;;;;;;;2.49;73.14;101266.06;4990509;28;20121;-91
2023/12/20 05:02:26;;;;;;;0.10;0.10;;;;;;;2.35;73.34;101244.84;4989609;28;20496;-89
2023/12/20 05:04:52;;;;;;;0.10;0.10;;;;;;;2.47;73.26;101260.13;4973599;28;20034;-90
2023/12/20 05:07:17;;;;;;;0.20;0.20;;;;;;;2.29;73.86;101258.53;4973735;28;20035;-89
2023/12/20 05:09:43;;;;;;;0.10;0.10;;;;;;;2.29;73.88;101262.78;4990012;28;20677;-90
2023/12/20 05:12:08;;;;;;;0.10;0.10;;;;;;;2.21;73.73;101272.16;4976334;28;20400;-88
2023/12/20 05:14:34;;;;;;;0.10;0.10;;;;;;;1.92;74.83;101241.66;4956790;28;20030;-90
2023/12/20 05:16:59;;;;;;;0.10;0.10;;;;;;;2.12;75.35;101262.84;4991620;28;20026;-86
2023/12/20 05:19:26;;;;;;;0.10;0.10;;;;;;;2.17;74.26;101257.75;4989989;28;20409;-90
2023/12/20 05:21:51;;;;;;;0.20;0.20;;;;;;;2.18;73.81;101241.56;4985766;28;20030;-91
2023/12/20 05:24:17;;;;;;;0.20;0.20;;;;;;;2.15;74.04;101242.41;4965973;28;20090;-92
2023/12/20 05:26:42;;;;;;;0.10;0.10;;;;;;;2.09;74.70;101244.16;4975950;28;20030;-91
2023/12/20 05:29:08;;;;;;;0.20;0.20;;;;;;;2.11;74.59;101227.97;4976845;28;20038;-88
2023/12/20 05:31:34;;;;;;;0.13;0.13;;;;;;;2.22;74.51;101240.69;4941873;28;20452;-93
2023/12/20 05:33:59;;;;;;;0.10;0.10;;;;;;;2.31;74.08;101235.53;4976529;28;20417;-92
2023/12/20 05:36:25;;;;;;;0.10;0.10;;;;;;;2.11;74.70;101219.47;4960569;28;20031;-87
2023/12/20 05:38:51;;;;;;;0.20;0.20;;;;;;;2.23;74.84;101221.94;4998736;28;20030;-88
2023/12/20 05:41:17;;;;;;;0.20;0.20;;;;;;;2.25;74.88;101225.34;4975605;28;20142;-92
2023/12/20 05:43:42;;;;;;;0.20;0.20;;;;;;;2.08;75.75;101216.94;4958554;28;20034;-89
2023/12/20 05:46:11;;;;;;;0.20;0.20;;;;;;;2.27;75.77;101223.66;4958621;28;20035;-91
2023/12/20 05:48:36;;;;;;;0.20;0.20;;;;;;;2.23;76.21;101206.63;4966432;28;20045;-91
2023/12/20 05:51:02;;;;;;;0.10;0.10;;;;;;;2.22;75.76;101204.94;4974238;28;20111;-89
2023/12/20 05:53:27;;;;;;;0.13;0.13;;;;;;;2.29;75.64;101211.72;4994237;28;20034;-88
2023/12/20 05:55:53;;;;;;;0.10;0.10;;;;;;;2.19;75.96;101185.38;4993739;28;20022;-86
2023/12/20 05:58:19;;;;;;;0.10;0.10;;;;;;;2.35;75.92;101206.56;4967283;28;20547;-88
2023/12/20 06:00:44;;;;;;;0.10;0.10;;;;;;;2.40;75.92;101209.94;4960147;28;20397;-92
2023/12/20 06:03:10;;;;;;;0.10;0.10;;;;;;;2.42;75.70;101200.56;4985014;28;20096;-85
2023/12/20 06:05:35;;;;;;;0.20;0.20;;;;;;;2.38;75.42;101200.59;4989457;28;20034;-88
2023/12/20 06:08:02;;;;;;;0.10;0.10;;;;;;;2.34;75.85;101204.84;4974501;28;20030;-86
2023/12/20 06:10:28;;;;;;;0.20;0.20;;;;;;;2.28;76.19;101199.81;4969865;28;20125;-84
2023/12/20 06:12:55;;;;;;;0.20;0.20;;;;;;;2.30;76.19;101177.66;4987200;28;20834;-88
2023/12/20 06:15:20;;;;;;;0.20;0.20;;;;;;;2.46;75.81;101194.59;4993537;28;20030;-89
2023/12/20 06:17:46;;;;;;;0.10;0.10;;;;;;;2.45;75.88;101182.66;4974295;28;20113;-90
2023/12/20 06:20:12;;;;;;;0.20;0.20;;;;;;;2.61;75.94;101193.63;4984589;28;20065;-87
2023/12/20 06:22:38;;;;;;;0.20;0.20;;;;;;;2.55;75.87;101174.06;4975668;28;20180;-85
2023/12/20 06:25:04;;;;;;;0.20;0.20;;;;;;;2.73;75.35;101192.69;4963512;28;20560;-85
2023/12/20 06:27:32;;;;;;;0.10;0.10;;;;;;;2.69;75.84;101181.66;4969354;28;20026;-83
2023/12/20 06:29:57;;;;;;;0.20;0.20;;;;;;;2.84;75.44;101201.09;4972701;28;20519;-82
2023/12/20 06:32:24;;;;;;;0.10;0.10;;;;;;;2.83;75.59;101201.97;4962284;28;20046;-89
2023/12/20 06:34:49;;;;;;;0.10;0.10;;;;;;;2.77;76.30;101196.94;4996500;28;20116;-92
2023/12/20 06:37:15;;;;;;;0.10;0.10;;;;;;;2.86;75.72;101207.91;4975837;28;20112;-91
2023/12/20 06:39:41;;;;;;;0.20;0.20;;;;;;;2.95;75.57;101209.56;4961599;28;20101;-87
2023/12/20 06:42:06;;;;;;;0.10;0.10;;;;;;;2.95;75.52;101209.56;4976806;28;20038;-92
2023/12/20 06:44:32;;;;;;;0.20;0.20;;;;;;;2.92;75.70;101199.34;4984575;28;20027;-91
2023/12/20 06:46:57;;;;;;;0.20;0.20;;;;;;;3.14;74.96;101195.72;4975592;28;20030;-86
2023/12/20 06:49:23;;;;;;;0.20;0.20;;;;;;;3.15;75.35;101197.44;4957012;28;20505;-90
2023/12/20 06:51:49;;;;;;;0.20;0.20;;;;;;;3.23;74.30;101189.69;4984570;28;20142;-85
2023/12/20 06:54:14;;;;;;;0.20;0.20;;;;;;;3.23;74.14;101179.44;4960452;28;20034;-89
2023/12/20 06:56:41;;;;;;;0.10;0.10;;;;;;;3.42;73.79;101192.91;4996842;28;20084;-92
2023/12/20 06:59:07;;;;;;;0.20;0.20;;;;;;;3.27;73.80;101180.28;4976803;28;20033;-92
2023/12/20 07:01:33;;;;;;;0.10;0.10;;;;;;;3.28;74.08;101187.09;4976050;28;20044;-92
2023/12/20 07:03:59;;;;;;;0.20;0.20;;;;;;;3.32;73.20;101189.59;4961846;28;20023;-86
2023/12/20 07:06:25;;;;;;;0.10;0.10;;;;;;;3.32;72.67;101170.84;4967070;28;20089;-88
2023/12/20 07:08:52;;;;;;;0.20;0.20;;;;;;;3.44;72.58;101183.50;4962754;28;20154;-84
2023/12/20 07:11:17;;;;;;;0.20;0.20;;;;;;;3.46;72.50;101174.13;4989978;28;20038;-86
2023/12/20 07:13:43;;;;;;;0.20;0.20;;;;;;;3.73;73.97;101158.44;4956155;28;20033;-87
2023/12/20 07:16:08;;;;;;;0.20;0.20;;;;;;;4.01;72.76;101176.00;4966321;28;20481;-84
2023/12/20 07:18:34;;;;;;;0.20;0.20;;;;;;;3.95;69.35;101161.59;4969743;28;20031;-83
2023/12/20 07:20:59;;;;;;;0.20;0.20;;;;;;;4.05;69.33;101172.56;4968710;28;20058;-86
2023/12/20 07:23:26;;;;;;;0.20;0.20;;;;;;;4.03;69.62;101159.78;4977452;28;20030;-91
2023/12/20 07:25:52;;;;;;;0.10;0.10;;;;;;;4.09;69.73;101151.16;4971414;28;20460;-83
2023/12/20 07:28:17;;;;;;;0.20;0.20;;;;;;;4.18;69.79;101163.81;4982143;28;20034;-90
2023/12/20 07:30:43;;;;;;;0.20;0.20;;;;;;;4.17;69.79;101162.13;4962315;28;20031;-86
2023/12/20 07:33:09;;;;;;;0.20;0.20;;;;;;;4.19;69.30;101170.63;4969994;28;20033;-86
2023/12/20 07:35:35;;;;;;;0.20;0.20;;;;;;;4.21;70.05;101168.03;4956856;28;20121;-82
2023/12/20 07:38:01;;;;;;;0.20;0.20;;;;;;;4.23;69.87;101163.78;4956412;28;20544;-86
2023/12/20 07:40:26;;;;;;;0.20;0.20;;;;;;;4.27;70.50;101148.31;4957460;28;20038;-86
2023/12/20 07:42:52;;;;;;;0.20;0.20;;;;;;;4.36;70.64;101161.88;4978966;28;20034;-86
2023/12/20 07:45:17;;;;;;;0.20;0.20;;;;;;;4.39;69.87;101162.66;4971967;28;20038;-85
2023/12/20 07:47:43;;;;;;;0.20;0.20;;;;;;;4.48;70.53;101161.69;4978511;28;20034;-89
2023/12/20 07:50:08;;;;;;;0.20;0.20;;;;;;;4.43;70.43;101145.56;4992694;28;20045;-86
2023/12/20 07:52:34;;;;;;;0.20;0.20;;;;;;;4.39;70.38;101142.16;4990146;28;20033;-86
2023/12/20 07:54:59;;;;;;;0.20;0.20;;;;;;;4.50;70.41;101154.81;4972653;28;20510;-85
2023/12/20 07:57:25;;;;;;;0.10;0.10;;;;;;;4.53;69.93;101145.38;4989633;28;20061;-87
2023/12/20 07:59:50;;;;;;;0.20;0.20;;;;;;;4.55;70.47;101143.63;4968843;28;20420;-88
2023/12/20 08:02:16;;;;;;;0.10;0.10;;;;;;;4.77;70.62;101144.13;4973200;28;20515;-88
2023/12/20 08:04:42;;;;;;;0.20;0.20;;;;;;;4.94;70.50;101154.09;4989728;28;20511;-89
2023/12/20 08:07:07;;;;;;;0.20;0.20;;;;;;;4.93;70.43;101142.16;4969044;28;20085;-86
2023/12/20 08:09:36;;;;;;;0.20;0.20;;;;;;;5.13;69.70;101152.91;4990703;28;20038;-92
2023/12/20 08:12:02;;;;;;;0.20;0.20;;;;;;;5.23;69.45;101145.03;4991145;28;20030;-93
2023/12/20 08:14:28;;;;;;;0.20;0.20;;;;;;;5.23;69.65;101142.47;4971137;28;20416;-90
2023/12/20 08:16:54;;;;;;;0.10;0.10;;;;;;;5.34;69.76;101131.13;4969641;28;20022;-86
2023/12/20 08:19:20;;;;;;;0.17;0.17;;;;;;;5.55;68.85;101127.28;4981151;28;20033;-93
2023/12/20 08:21:46;;;;;;;0.20;0.20;;;;;;;5.71;68.57;101127.84;4988660;28;20588;-96
2023/12/20 08:24:13;;;;;;;0.20;0.20;;;;;;;5.83;68.81;101126.72;4988599;28;20069;-91
2023/12/20 08:26:39;;;;;;;0.20;0.20;;;;;;;5.90;68.49;101108.63;4986650;28;20042;-91
2023/12/20 08:29:04;;;;;;;0.20;0.20;;;;;;;6.24;72.25;101102.72;4974047;28;20030;-92
2023/12/20 08:31:30;;;;;;;0.20;0.20;;;;;;;6.58;71.45;101103.56;4991244;28;20050;-92
2023/12/20 08:33:55;;;;;;;0.20;0.20;;;;;;;6.54;67.06;101101.13;4959151;28;20707;-93
2023/12/20 08:36:24;;;;;;;0.20;0.20;;;;;;;6.48;66.58;101103.84;4980969;28;20050;-85
2023/12/20 08:38:49;;;;;;;0.20;0.20;;;;;;;6.37;66.62;101088.69;4966274;28;20554;-88
2023/12/20 08:41:17;;;;;;;0.20;0.20;;;;;;;6.31;67.11;101076.00;4972947;28;20057;-90
2023/12/20 08:43:43;;;;;;;0.20;0.20;;;;;;;6.43;67.27;101087.69;4991602;28;20074;-92
2023/12/20 08:46:11;;;;;;;0.20;0.20;;;;;;;6.27;67.87;101075.22;4970633;28;20073;-86
2023/12/20 08:48:37;;;;;;;0.20;0.20;;;;;;;6.30;67.89;101074.31;4987885;28;20109;-83
2023/12/20 08:51:03;;;;;;;0.20;0.20;;;;;;;6.30;67.98;101069.19;4964934;28;20122;-89
2023/12/20 08:53:29;;;;;;;0.20;0.20;;;;;;;6.12;67.88;101051.63;4987308;28;20055;-84
2023/12/20 08:55:54;;;;;;;0.20;0.20;;;;;;;6.19;68.28;101061.69;4988842;28;20029;-85
2023/12/20 08:58:20;;;;;;;0.20;0.20;;;;;;;6.21;68.61;101070.25;4985531;28;20030;-90
2023/12/20 09:00:46;;;;;;;0.20;0.20;;;;;;;6.14;68.66;101065.28;4990238;28;20130;-90
2023/12/20 09:03:11;;;;;;;0.20;0.20;;;;;;;6.26;68.53;101059.84;4975621;28;20522;-91
2023/12/20 09:05:37;;;;;;;0.20;0.20;;;;;;;6.25;68.71;101058.16;4973255;28;20034;-89
2023/12/20 09:08:03;;;;;;;0.20;0.20;;;;;;;6.27;68.72;101067.50;4973393;28;20057;-91
2023/12/20 09:10:28;;;;;;;0.20;0.20;;;;;;;6.41;68.23;101051.75;4989487;28;20521;-86
2023/12/20 09:12:56;;;;;;;0.20;0.20;;;;;;;6.43;68.28;101050.00;4963500;28;20034;-89
2023/12/20 09:15:24;;;;;;;0.20;0.20;;;;;;;6.42;68.39;101030.31;4955557;28;20022;-90
2023/12/20 09:17:50;;;;;;;0.10;0.10;;;;;;;6.44;68.75;101040.56;4985408;28;20137;-90
2023/12/20 09:20:16;;;;;;;0.20;0.20;;;;;;;6.52;68.46;101021.50;4960607;28;20126;-86
2023/12/20 09:22:42;;;;;;;0.20;0.20;;;;;;;6.55;68.70;101021.41;4979439;28;20500;-89
2023/12/20 09:25:12;;;;;;;0.20;0.20;;;;;;;6.52;68.56;101024.06;4977571;28;20447;-88
2023/12/20 09:27:38;;;;;;;0.20;0.20;;;;;;;6.59;68.64;101007.59;4989261;28;20026;-87
2023/12/20 09:30:05;;;;;;;0.20;0.20;;;;;;;6.64;68.48;101016.91;4970239;28;20053;-91
2023/12/20 09:32:31;;;;;;;0.20;0.20;;;;;;;6.76;68.11;101011.44;4957114;28;20053;-91
2023/12/20 09:34:57;;;;;;;0.13;0.13;;;;;;;6.84;67.59;101001.78;4992139;28;20031;-86
2023/12/20 09:37:26;;;;;;;0.20;0.20;;;;;;;6.87;67.41;101004.25;4958169;28;20533;-89
2023/12/20 09:39:52;;;;;;;0.20;0.20;;;;;;;6.87;67.81;100988.84;4956395;28;20129;-92
2023/12/20 09:42:33;;;;;;;0.20;0.20;;;;;;;6.92;67.30;101002.44;4983979;28;20512;-90
2023/12/20 09:44:59;;;;;;;0.20;0.20;;;;;;;6.81;67.85;100991.59;4934730;28;20504;-82
2023/12/20 09:47:24;;;;;;;0.20;0.20;;;;;;;6.91;67.70;100985.31;4971474;28;20034;-91
2023/12/20 09:49:52;;;;;;;0.20;0.20;;;;;;;7.04;67.83;100960.06;4957945;28;20117;-89
2023/12/20 09:52:18;;;;;;;0.20;0.20;;;;;;;7.19;66.75;100973.34;4975422;28;20023;-87
2023/12/20 09:54:44;;;;;;;0.20;0.20;;;;;;;7.56;68.02;100973.94;4969251;28;20031;-90
2023/12/20 09:57:10;;;;;;;0.20;0.20;;;;;;;7.73;66.97;100969.97;4951119;28;20047;-90
2023/12/20 09:59:35;;;;;;;0.20;0.20;;;;;;;7.90;66.03;100968.59;4958209;28;20030;-92
2023/12/20 10:02:03;;;;;;;0.20;0.20;;;;;;;7.98;64.72;100971.75;4957722;28;20097;-89
2023/12/20 10:04:28;;;;;;;0.15;0.15;;;;;;;7.73;64.76;100935.63;4963672;28;20046;-91
2023/12/20 10:06:56;;;;;;;0.20;0.20;;;;;;;8.16;66.86;100955.69;4966672;28;20061;-92
2023/12/20 10:09:21;;;;;;;0.10;0.10;;;;;;;7.99;64.73;100940.78;4981681;28;20042;-89
2023/12/20 10:11:47;;;;;;;0.20;0.20;;;;;;;8.02;64.41;100943.25;4968483;28;20472;-92
2023/12/20 10:14:12;;;;;;;0.20;0.20;;;;;;;8.04;63.66;100945.78;4940604;28;20425;-93
2023/12/20 10:16:38;;;;;;;0.20;0.20;;;;;;;7.99;65.41;100942.53;4952548;28;20035;-88
2023/12/20 10:19:04;;;;;;;0.20;0.20;;;;;;;8.21;64.35;100938.34;4968345;28;20050;-88
2023/12/20 10:21:29;;;;;;;0.20;0.20;;;;;;;8.15;63.75;100946.25;4987684;28;20038;-91
2023/12/20 10:23:55;;;;;;;0.20;0.20;;;;;;;8.34;63.36;100929.31;4967217;28;20490;-92
2023/12/20 10:26:22;;;;;;;0.20;0.20;;;;;;;8.27;63.31;100907.19;4962180;28;20512;-91
2023/12/20 10:28:55;;;;;;;0.20;0.20;;;;;;;8.53;62.63;100923.50;4956688;28;20059;-92
2023/12/20 10:31:33;;;;;;;0.20;0.20;;;;;;;8.62;61.37;100915.44;4953449;28;20046;-89
2023/12/20 10:34:00;;;;;;;0.20;0.20;;;;;;;8.67;59.93;100918.72;4955916;28;20447;-92
2023/12/20 10:36:26;;;;;;;0.20;0.20;;;;;;;8.85;60.47;100899.13;4964040;28;20039;-88
2023/12/20 10:38:52;;;;;;;0.20;0.20;;;;;;;8.93;60.02;100896.25;4961745;28;20046;-88
2023/12/20 10:41:19;;;;;;;0.20;0.20;;;;;;;8.79;61.16;100904.50;4974680;28;20034;-87
2023/12/20 10:43:45;;;;;;;0.20;0.20;;;;;;;8.57;61.61;100894.16;4973127;28;20473;-90
2023/12/20 10:46:11;;;;;;;0.20;0.20;;;;;;;8.68;61.19;100886.84;4992105;28;20041;-90
2023/12/20 10:48:36;;;;;;;0.20;0.20;;;;;;;8.65;61.76;100893.84;4959869;28;20500;-89
2023/12/20 10:51:03;;;;;;;0.20;0.20;;;;;;;8.61;62.03;100885.38;4976063;28;20390;-93
2023/12/20 10:53:28;;;;;;;0.20;0.20;;;;;;;8.46;63.32;100878.22;4980395;28;20038;-91
2023/12/20 10:55:56;;;;;;;0.20;0.20;;;;;;;8.40;63.44;100863.81;4940578;28;20035;-87
2023/12/20 10:58:22;;;;;;;0.20;0.20;;;;;;;8.34;63.17;100857.13;4966093;28;20041;-92
2023/12/20 11:00:48;;;;;;;0.20;0.20;;;;;;;8.37;62.95;100860.50;4974040;28;21206;-87
2023/12/20 11:03:13;;;;;;;0.20;0.20;;;;;;;8.18;62.80;100837.94;4972645;28;20038;-84
2023/12/20 11:05:47;;;;;;;0.20;0.20;;;;;;;8.13;63.06;100852.69;4981141;28;20062;-87
2023/12/20 11:08:33;;;;;;;0.20;0.20;;;;;;;8.55;64.72;100862.41;4992757;28;20037;-84
2023/12/20 11:11:16;;;;;;;0.20;0.20;;;;;;;8.55;61.26;100846.91;4983101;28;20511;-84
2023/12/20 11:14:08;;;;;;;0.20;0.20;;;;;;;8.49;60.87;100852.31;4976805;28;20100;-86
2023/12/20 11:16:37;;;;;;;0.20;0.20;;;;;;;8.38;61.36;100857.03;4978977;28;20262;-86
2023/12/20 11:19:06;;;;;;;0.20;0.20;;;;;;;8.30;61.85;100845.22;4959380;28;20035;-90
2023/12/20 11:21:31;;;;;;;0.20;0.20;;;;;;;8.42;61.63;100840.53;4970773;28;20463;-84
2023/12/20 11:23:57;;;;;;;0.20;0.20;;;;;;;8.58;62.51;100839.09;4992168;28;20030;-87
2023/12/20 11:26:26;;;;;;;0.20;0.20;;;;;;;8.63;62.61;100842.31;4991338;28;20519;-88
2023/12/20 11:28:52;;;;;;;0.20;0.20;;;;;;;8.56;62.86;100826.25;4991469;28;20026;-84